createdAt,value
2022-08-14T00:01:10.189Z,23.16
2022-08-14T00:03:43.140Z,23.14
2022-08-14T00:06:28.406Z,23.11
2022-08-14T00:09:00.875Z,23.07
2022-08-14T00:11:33.395Z,23.06
2022-08-14T00:14:05.723Z,23.04
2022-08-14T00:16:40.364Z,23.02
2022-08-14T00:19:19.139Z,23.01
2022-08-14T00:21:53.480Z,22.99
2022-08-14T00:24:28.914Z,23.00
2022-08-14T00:27:02.805Z,23.03
2022-08-14T00:29:40.276Z,23.06
2022-08-14T00:32:53.013Z,23.10
2022-08-14T00:35:06.280Z,23.16
2022-08-14T00:37:41.630Z,23.21
2022-08-14T00:40:19.187Z,23.25
2022-08-14T00:43:05.132Z,23.29
2022-08-14T00:45:36.656Z,23.30
2022-08-14T00:48:08.430Z,23.30
2022-08-14T00:50:40.121Z,23.29
2022-08-14T00:53:13.492Z,23.27
2022-08-14T00:55:47.593Z,23.25
2022-08-14T00:58:35.708Z,23.23
2022-08-14T01:01:19.187Z,23.22
2022-08-14T01:03:53.045Z,23.19
2022-08-14T01:06:25.565Z,23.15
2022-08-14T01:09:02.592Z,23.11
2022-08-14T01:11:36.222Z,23.08
2022-08-14T01:14:25.910Z,23.05
2022-08-14T01:16:59.875Z,23.00
2022-08-14T01:19:49.417Z,22.97
2022-08-14T01:22:21.208Z,22.92
2022-08-14T01:24:58.479Z,22.90
2022-08-14T01:27:30.429Z,22.88
2022-08-14T01:30:08.988Z,22.87
2022-08-14T01:32:42.578Z,22.85
2022-08-14T01:35:20.041Z,22.85
2022-08-14T01:38:05.967Z,22.83
2022-08-14T01:40:41.771Z,22.80
2022-08-14T01:43:15.998Z,22.80
2022-08-14T01:45:57.680Z,22.81
2022-08-14T01:48:38.205Z,22.83
2022-08-14T01:51:18.997Z,22.86
2022-08-14T01:53:55.357Z,22.90
2022-08-14T01:56:37.041Z,22.95
2022-08-14T01:59:18.297Z,23.00
2022-08-14T02:01:57.901Z,22.99
2022-08-14T02:04:41.030Z,22.99
2022-08-14T02:07:34.654Z,23.01
2022-08-14T02:10:18.133Z,22.97
2022-08-14T02:12:59.605Z,22.95
2022-08-14T02:15:31.129Z,22.93
2022-08-14T02:18:04.606Z,22.92
2022-08-14T02:20:36.229Z,22.90
2022-08-14T02:23:08.373Z,22.86
2022-08-14T02:25:40.606Z,22.83
2022-08-14T02:28:24.168Z,22.80
2022-08-14T02:31:03.549Z,22.75
2022-08-14T02:33:41.706Z,22.72
2022-08-14T02:37:05.269Z,22.70
2022-08-14T02:39:04.770Z,22.67
2022-08-14T02:41:39.945Z,22.66
2022-08-14T02:44:21.663Z,22.64
2022-08-14T02:47:01.814Z,22.63
2022-08-14T02:49:34.196Z,22.62
2022-08-14T02:52:56.654Z,22.62
2022-08-14T02:54:59.441Z,22.61
2022-08-14T02:57:39.308Z,22.59
2022-08-14T03:00:18.810Z,22.60
2022-08-14T03:02:58.746Z,22.59
2022-08-14T03:05:32.930Z,22.58
2022-08-14T03:08:09.469Z,22.58
2022-08-14T03:10:48.722Z,22.60
2022-08-14T03:13:21.993Z,22.63
2022-08-14T03:15:55.153Z,22.67
2022-08-14T03:18:31.961Z,22.71
2022-08-14T03:21:05.730Z,22.72
2022-08-14T03:23:37.926Z,22.72
2022-08-14T03:26:12.964Z,22.71
2022-08-14T03:28:51.226Z,22.70
2022-08-14T03:31:27.942Z,22.70
2022-08-14T03:34:01.203Z,22.66
2022-08-14T03:37:51.893Z,22.64
2022-08-14T03:39:27.786Z,22.59
2022-08-14T03:42:00.051Z,22.56
2022-08-14T03:45:26.285Z,22.54
2022-08-14T03:47:46.675Z,22.52
2022-08-14T03:50:27.967Z,22.46
2022-08-14T03:53:04.477Z,22.45
2022-08-14T03:55:36.834Z,22.49
2022-08-14T03:58:09.569Z,22.51
2022-08-14T04:00:46.591Z,22.58
2022-08-14T04:03:24.275Z,22.64
2022-08-14T04:05:56.161Z,22.67
2022-08-14T04:08:30.482Z,22.69
2022-08-14T04:11:08.023Z,22.69
2022-08-14T04:13:43.195Z,22.73
2022-08-14T04:16:16.847Z,22.75
2022-08-14T04:18:49.798Z,22.75
2022-08-14T04:21:59.809Z,22.75
2022-08-14T04:24:22.304Z,22.73
2022-08-14T04:26:57.424Z,22.74
2022-08-14T04:29:28.929Z,22.74
2022-08-14T04:33:01.417Z,22.73
2022-08-14T04:34:56.194Z,22.75
2022-08-14T04:37:45.604Z,22.81
2022-08-14T04:40:35.325Z,22.83
2022-08-14T04:43:38.311Z,22.88
2022-08-14T04:46:55.641Z,22.95
2022-08-14T04:49:03.407Z,22.99
2022-08-14T04:51:46.800Z,23.00
2022-08-14T04:54:28.477Z,23.01
2022-08-14T04:56:59.815Z,23.03
2022-08-14T04:59:31.756Z,23.03
2022-08-14T05:02:03.829Z,23.05
2022-08-14T05:04:35.255Z,23.03
2022-08-14T05:07:11.393Z,23.02
2022-08-14T05:09:43.921Z,23.01
2022-08-14T05:13:13.308Z,23.02
2022-08-14T05:15:12.074Z,23.08
2022-08-14T05:17:58.640Z,23.10
2022-08-14T05:21:54.685Z,23.20
2022-08-14T05:23:28.890Z,23.40
2022-08-14T05:26:02.238Z,23.60
2022-08-14T05:28:34.367Z,24.21
2022-08-14T05:31:07.039Z,25.17
2022-08-14T05:33:39.287Z,26.01
2022-08-14T05:36:16.840Z,26.03
2022-08-14T05:38:48.876Z,25.92
2022-08-14T05:41:21.756Z,26.21
2022-08-14T05:43:53.523Z,27.06
2022-08-14T05:46:25.114Z,27.64
2022-08-14T05:48:57.794Z,27.96
2022-08-14T05:51:30.655Z,28.22
2022-08-14T05:54:12.775Z,27.98
2022-08-14T05:56:45.680Z,27.44
2022-08-14T05:59:17.049Z,27.17
2022-08-14T06:01:51.166Z,27.07
2022-08-14T06:04:22.803Z,26.99
2022-08-14T06:06:56.476Z,26.92
2022-08-14T06:09:29.859Z,26.77
2022-08-14T06:12:08.578Z,26.56
2022-08-14T06:14:40.073Z,26.46
2022-08-14T06:17:25.657Z,26.32
2022-08-14T06:19:57.557Z,26.24
2022-08-14T06:22:29.080Z,26.16
2022-08-14T06:25:00.362Z,25.93
2022-08-14T06:27:36.522Z,25.79
2022-08-14T06:30:10.871Z,25.65
2022-08-14T06:32:42.382Z,25.54
2022-08-14T06:35:15.006Z,25.49
2022-08-14T06:37:47.933Z,25.46
2022-08-14T06:40:26.920Z,25.54
2022-08-14T06:43:03.160Z,25.73
2022-08-14T06:45:36.165Z,25.86
2022-08-14T06:48:14.792Z,26.15
2022-08-14T06:50:48.942Z,26.08
2022-08-14T06:53:20.338Z,25.88
2022-08-14T06:55:58.290Z,25.65
2022-08-14T06:58:32.872Z,25.47
2022-08-14T07:01:27.064Z,25.26
2022-08-14T07:04:18.880Z,25.18
2022-08-14T07:06:59.383Z,25.39
2022-08-14T07:09:43.616Z,25.78
2022-08-14T07:12:54.694Z,26.08
2022-08-14T07:15:13.608Z,26.65
2022-08-14T07:17:52.014Z,27.59
2022-08-14T07:20:30.581Z,28.11
2022-08-14T07:23:08.615Z,28.43
2022-08-14T07:25:44.304Z,28.82
2022-08-14T07:28:20.786Z,28.81
2022-08-14T07:30:56.616Z,28.70
2022-08-14T07:33:30.212Z,28.66
2022-08-14T07:36:26.272Z,28.65
2022-08-14T07:38:55.991Z,28.72
2022-08-14T07:41:34.141Z,28.85
2022-08-14T07:44:32.672Z,29.08
2022-08-14T07:46:59.075Z,29.20
2022-08-14T07:49:30.808Z,29.16
2022-08-14T07:52:03.361Z,29.13
2022-08-14T07:54:34.900Z,28.96
2022-08-14T07:57:12.571Z,28.78
2022-08-14T07:59:53.873Z,28.59
2022-08-14T08:02:26.578Z,28.63
2022-08-14T08:04:59.679Z,28.75
2022-08-14T08:07:32.670Z,28.75
2022-08-14T08:10:46.208Z,28.74
2022-08-14T08:13:23.918Z,28.56
2022-08-14T08:15:57.621Z,28.34
2022-08-14T08:18:31.159Z,28.21
2022-08-14T08:21:03.144Z,28.15
2022-08-14T08:23:40.568Z,28.13
2022-08-14T08:26:15.798Z,28.08
2022-08-14T08:28:57.179Z,28.09
2022-08-14T08:31:32.818Z,28.16
2022-08-14T08:34:14.138Z,28.08
2022-08-14T08:36:46.563Z,28.02
2022-08-14T08:39:22.692Z,27.97
2022-08-14T08:41:54.612Z,27.86
2022-08-14T08:44:34.299Z,27.91
2022-08-14T08:47:08.170Z,27.97
2022-08-14T08:49:48.528Z,28.20
2022-08-14T08:52:32.147Z,28.25
2022-08-14T08:55:05.052Z,28.22
2022-08-14T08:57:38.208Z,28.30
2022-08-14T09:00:24.894Z,28.17
2022-08-14T09:02:59.668Z,28.05
2022-08-14T09:05:32.255Z,28.00
2022-08-14T09:08:30.864Z,28.05
2022-08-14T09:11:18.781Z,28.18
2022-08-14T09:13:53.928Z,28.06
2022-08-14T09:16:26.311Z,27.92
2022-08-14T09:18:58.346Z,27.96
2022-08-14T09:21:31.925Z,27.99
2022-08-14T09:24:28.404Z,27.86
2022-08-14T09:26:55.338Z,27.73
2022-08-14T09:29:28.775Z,27.55
2022-08-14T09:32:02.382Z,27.48
2022-08-14T09:34:58.375Z,27.56
2022-08-14T09:37:40.100Z,27.69
2022-08-14T09:40:21.009Z,27.54
2022-08-14T09:42:58.029Z,27.40
2022-08-14T09:45:39.762Z,27.23
2022-08-14T09:48:30.179Z,27.21
2022-08-14T09:54:12.568Z,27.09
2022-08-14T09:56:45.385Z,27.06
2022-08-14T09:59:22.928Z,27.02
2022-08-14T10:01:57.450Z,27.00
2022-08-14T10:04:36.544Z,26.93
2022-08-14T10:07:12.388Z,26.87
2022-08-14T10:09:59.637Z,26.84
2022-08-14T10:12:52.988Z,26.76
2022-08-14T10:15:29.859Z,26.63
2022-08-14T10:18:13.332Z,26.59
2022-08-14T10:20:58.185Z,26.65
2022-08-14T10:23:34.978Z,26.73
2022-08-14T10:26:08.629Z,26.81
2022-08-14T10:29:18.385Z,26.86
2022-08-14T10:31:40.078Z,26.98
2022-08-14T10:34:15.408Z,27.15
2022-08-14T10:36:50.123Z,27.29
2022-08-14T10:39:34.047Z,27.41
2022-08-14T10:42:18.336Z,27.42
2022-08-14T10:44:53.069Z,27.45
2022-08-14T10:47:39.475Z,27.54
2022-08-14T10:50:34.451Z,27.54
2022-08-14T10:53:08.189Z,27.47
2022-08-14T10:55:45.742Z,27.48
2022-08-14T10:58:28.661Z,27.54
2022-08-14T11:01:08.330Z,27.65
2022-08-14T11:03:55.951Z,27.78
2022-08-14T11:06:29.221Z,27.83
2022-08-14T11:09:00.718Z,27.94
2022-08-14T11:11:37.098Z,28.17
2022-08-14T11:14:09.731Z,28.72
2022-08-14T11:16:49.095Z,29.13
2022-08-14T11:19:25.939Z,29.36
2022-08-14T11:22:00.263Z,29.45
2022-08-14T11:24:54.463Z,29.53
2022-08-14T11:27:33.271Z,29.79
2022-08-14T11:30:49.832Z,29.90
2022-08-14T11:33:01.363Z,29.64
2022-08-14T11:35:44.194Z,29.37
2022-08-14T11:38:21.722Z,29.11
2022-08-14T11:40:53.856Z,28.98
2022-08-14T11:43:29.105Z,28.98
2022-08-14T11:46:03.540Z,29.10
2022-08-14T11:49:01.789Z,29.11
2022-08-14T11:51:54.370Z,29.05
2022-08-14T11:54:34.561Z,28.98
2022-08-14T11:57:07.698Z,29.00
2022-08-14T11:59:44.305Z,28.97
2022-08-14T12:03:01.030Z,28.98
2022-08-14T12:05:10.731Z,28.91
2022-08-14T12:07:51.380Z,28.89
2022-08-14T12:10:27.293Z,28.87
2022-08-14T12:13:17.353Z,28.99
2022-08-14T12:15:58.888Z,29.08
2022-08-14T12:18:35.435Z,29.06
2022-08-14T12:21:19.297Z,29.12
2022-08-14T12:24:04.222Z,29.16
2022-08-14T12:26:40.653Z,29.26
2022-08-14T12:29:14.787Z,29.32
2022-08-14T12:31:51.534Z,29.29
2022-08-14T12:34:24.246Z,29.15
2022-08-14T12:37:06.241Z,29.13
2022-08-14T12:39:39.742Z,29.20
2022-08-14T12:42:34.238Z,29.16
2022-08-14T12:45:05.938Z,29.22
2022-08-14T12:47:39.858Z,29.33
2022-08-14T12:50:12.342Z,29.40
2022-08-14T12:53:06.423Z,29.46
2022-08-14T12:56:17.809Z,29.85
2022-08-14T12:58:50.011Z,29.93
2022-08-14T13:01:25.810Z,29.78
2022-08-14T13:04:07.614Z,29.41
2022-08-14T13:06:42.231Z,29.21
2022-08-14T13:09:17.126Z,29.12
2022-08-14T13:11:58.452Z,29.12
2022-08-14T13:14:33.994Z,29.14
2022-08-14T13:17:05.890Z,29.22
2022-08-14T13:19:41.662Z,29.23
2022-08-14T13:22:19.452Z,29.19
2022-08-14T13:25:05.268Z,29.29
2022-08-14T13:27:39.487Z,29.37
2022-08-14T13:30:21.234Z,29.34
2022-08-14T13:32:57.733Z,29.36
2022-08-14T13:35:29.854Z,29.33
2022-08-14T13:38:01.884Z,29.27
2022-08-14T13:40:33.656Z,29.24
2022-08-14T13:43:10.621Z,29.23
2022-08-14T13:45:59.901Z,29.17
2022-08-14T13:48:36.084Z,29.10
2022-08-14T13:51:10.842Z,28.99
2022-08-14T13:54:06.939Z,28.87
2022-08-14T13:56:39.399Z,28.79
2022-08-14T13:59:12.007Z,28.85
2022-08-14T14:01:52.139Z,28.94
2022-08-14T14:04:25.288Z,28.98
2022-08-14T14:06:59.036Z,29.05
2022-08-14T14:09:37.463Z,29.10
2022-08-14T14:12:37.690Z,29.03
2022-08-14T14:15:04.898Z,29.02
2022-08-14T14:17:38.909Z,29.10
2022-08-14T14:20:15.140Z,29.19
2022-08-14T14:23:12.157Z,29.25
2022-08-14T14:25:57.191Z,29.28
2022-08-14T14:28:31.375Z,29.32
2022-08-14T14:31:05.945Z,29.34
2022-08-14T14:33:46.851Z,29.30
2022-08-14T14:36:22.068Z,29.23
2022-08-14T14:38:57.416Z,29.20
2022-08-14T14:41:37.980Z,29.15
2022-08-14T14:44:13.586Z,29.12
2022-08-14T14:46:53.066Z,29.10
2022-08-14T14:49:25.919Z,29.04
2022-08-14T14:52:27.014Z,29.01
2022-08-14T14:55:00.557Z,28.97
2022-08-14T14:57:35.104Z,28.90
2022-08-14T15:00:12.587Z,28.81
2022-08-14T15:02:45.626Z,28.78
2022-08-14T15:05:19.075Z,28.77
2022-08-14T15:07:52.677Z,28.79
2022-08-14T15:10:27.323Z,28.80
2022-08-14T15:13:04.423Z,28.77
2022-08-14T15:15:37.878Z,28.74
2022-08-14T15:18:35.856Z,28.71
2022-08-14T15:21:03.367Z,28.73
2022-08-14T15:23:44.339Z,28.73
2022-08-14T15:26:31.269Z,28.76
2022-08-14T15:29:06.412Z,28.73
2022-08-14T15:31:38.755Z,28.71
2022-08-14T15:34:45.968Z,28.68
2022-08-14T15:37:12.739Z,28.66
2022-08-14T15:39:45.402Z,28.65
2022-08-14T15:42:17.158Z,28.67
2022-08-14T15:44:58.076Z,28.61
2022-08-14T15:47:35.201Z,28.50
2022-08-14T15:50:13.771Z,28.49
2022-08-14T15:52:45.622Z,28.51
2022-08-14T15:55:17.536Z,28.52
2022-08-14T15:58:02.128Z,28.50
2022-08-14T16:00:55.348Z,28.47
2022-08-14T16:03:36.563Z,28.46
2022-08-14T16:06:15.740Z,28.46
2022-08-14T16:08:58.962Z,28.45
2022-08-14T16:11:32.936Z,28.40
2022-08-14T16:14:06.754Z,28.40
2022-08-14T16:16:51.582Z,28.43
2022-08-14T16:19:44.079Z,28.45
2022-08-14T16:22:58.156Z,28.49
2022-08-14T16:25:10.911Z,28.55
2022-08-14T16:27:51.378Z,28.57
2022-08-14T16:30:27.472Z,28.58
2022-08-14T16:33:01.988Z,28.51
2022-08-14T16:35:42.447Z,28.44
2022-08-14T16:38:46.195Z,28.39
2022-08-14T16:41:21.227Z,28.37
2022-08-14T16:43:58.870Z,28.35
2022-08-14T16:46:32.905Z,28.33
2022-08-14T16:49:06.816Z,28.33
2022-08-14T16:51:39.822Z,28.25
2022-08-14T16:54:20.999Z,28.22
2022-08-14T16:57:20.960Z,28.23
2022-08-14T16:59:57.744Z,28.24
2022-08-14T17:02:39.806Z,28.25
2022-08-14T17:05:22.331Z,28.26
2022-08-14T17:08:32.562Z,28.28
2022-08-14T17:11:09.760Z,28.30
2022-08-14T17:13:58.677Z,28.33
2022-08-14T17:16:37.434Z,28.32
2022-08-14T17:19:14.366Z,28.34
2022-08-14T17:21:50.874Z,28.36
2022-08-14T17:24:56.934Z,28.35
2022-08-14T17:27:18.453Z,28.34
2022-08-14T17:29:57.951Z,28.32
2022-08-14T17:32:44.046Z,28.26
2022-08-14T17:35:18.241Z,28.22
2022-08-14T17:37:55.847Z,28.19
2022-08-14T17:40:31.845Z,28.14
2022-08-14T17:43:04.010Z,28.07
2022-08-14T17:45:46.952Z,27.97
2022-08-14T17:49:14.088Z,27.91
2022-08-14T17:51:23.732Z,27.85
2022-08-14T17:54:03.433Z,27.82
2022-08-14T17:56:36.215Z,27.79
2022-08-14T17:59:11.666Z,27.76
2022-08-14T18:01:49.723Z,27.71
2022-08-14T18:04:25.147Z,27.69
2022-08-14T18:07:16.104Z,27.67
2022-08-14T18:09:57.060Z,27.60
2022-08-14T18:12:36.901Z,27.54
2022-08-14T18:15:15.848Z,27.51
2022-08-14T18:17:53.106Z,27.53
2022-08-14T18:21:42.982Z,27.57
2022-08-14T18:23:18.655Z,27.61
2022-08-14T18:25:52.299Z,27.64
2022-08-14T18:28:48.443Z,27.64
2022-08-14T18:31:43.599Z,27.61
2022-08-14T18:34:30.975Z,27.58
2022-08-14T18:37:17.650Z,27.49
2022-08-14T18:40:02.756Z,27.38
2022-08-14T18:42:46.446Z,27.27
2022-08-14T18:45:28.744Z,27.15
2022-08-14T18:48:15.805Z,27.04
2022-08-14T18:50:52.888Z,26.94
2022-08-14T18:53:34.199Z,26.85
2022-08-14T18:56:09.527Z,26.76
2022-08-14T18:58:58.462Z,26.65
2022-08-14T19:01:31.164Z,26.52
2022-08-14T19:04:04.074Z,26.40
2022-08-14T19:06:55.788Z,26.29
2022-08-14T19:09:50.235Z,26.17
2022-08-14T19:12:44.522Z,26.00
2022-08-14T19:15:25.959Z,25.86
2022-08-14T19:18:14.301Z,25.80
2022-08-14T19:20:53.323Z,25.75
2022-08-14T19:23:42.256Z,25.69
2022-08-14T19:26:35.542Z,25.63
2022-08-14T19:29:23.496Z,25.60
2022-08-14T19:31:58.886Z,25.55
2022-08-14T19:34:52.212Z,25.50
2022-08-14T19:37:38.174Z,25.41
2022-08-14T19:40:15.239Z,25.37
2022-08-14T19:42:51.902Z,25.33
2022-08-14T19:45:33.703Z,25.28
2022-08-14T19:48:12.377Z,25.23
2022-08-14T19:50:46.941Z,25.19
2022-08-14T19:53:19.703Z,25.16
2022-08-14T19:55:59.374Z,25.13
2022-08-14T19:58:54.891Z,25.11
2022-08-14T20:01:36.588Z,25.10
2022-08-14T20:04:47.053Z,25.13
2022-08-14T20:07:04.262Z,25.16
2022-08-14T20:11:07.976Z,25.18
2022-08-14T20:12:57.211Z,25.15
2022-08-14T20:15:46.808Z,25.13
2022-08-14T20:18:49.866Z,25.15
2022-08-14T20:21:20.198Z,25.16
2022-08-14T20:23:52.128Z,25.14
2022-08-14T20:26:32.017Z,25.14
2022-08-14T20:29:08.650Z,25.12
2022-08-14T20:31:40.604Z,25.10
2022-08-14T20:34:18.890Z,25.08
2022-08-14T20:37:09.635Z,25.04
2022-08-14T20:39:43.632Z,25.00
2022-08-14T20:42:35.733Z,24.93
2022-08-14T20:45:23.745Z,24.84
2022-08-14T20:48:01.107Z,24.79
2022-08-14T20:50:33.568Z,24.78
2022-08-14T20:53:26.551Z,24.74
2022-08-14T20:56:04.396Z,24.69
2022-08-14T20:58:47.891Z,24.62
2022-08-14T21:01:36.721Z,24.58
2022-08-14T21:04:22.771Z,24.53
2022-08-14T21:07:25.195Z,24.48
2022-08-14T21:10:05.645Z,24.44
2022-08-14T21:13:25.787Z,24.39
2022-08-14T21:15:32.905Z,24.34
2022-08-14T21:18:05.634Z,24.27
2022-08-14T21:20:38.466Z,24.22
2022-08-14T21:23:12.350Z,24.21
2022-08-14T21:25:46.322Z,24.22
2022-08-14T21:28:29.318Z,24.27
2022-08-14T21:31:02.426Z,24.31
2022-08-14T21:33:34.679Z,24.36
2022-08-14T21:36:07.852Z,24.40
2022-08-14T21:38:42.474Z,24.42
2022-08-14T21:41:41.245Z,24.43
2022-08-14T21:44:18.086Z,24.42
2022-08-14T21:46:54.115Z,24.40
2022-08-14T21:49:33.831Z,24.37
2022-08-14T21:52:51.584Z,24.35
2022-08-14T21:55:09.089Z,24.32
2022-08-14T21:58:44.863Z,24.32
2022-08-14T22:00:42.546Z,24.29
2022-08-14T22:03:17.580Z,24.22
2022-08-14T22:05:50.531Z,24.18
2022-08-14T22:08:26.759Z,24.14
2022-08-14T22:10:59.634Z,24.10
2022-08-14T22:13:32.638Z,24.07
2022-08-14T22:16:04.927Z,24.02
2022-08-14T22:18:36.753Z,23.97
2022-08-14T22:21:16.838Z,23.91
2022-08-14T22:23:49.317Z,23.88
2022-08-14T22:26:23.557Z,23.84
2022-08-14T22:29:06.940Z,23.82
2022-08-14T22:31:41.666Z,23.80
2022-08-14T22:34:16.179Z,23.83
2022-08-14T22:36:51.129Z,23.86
2022-08-14T22:39:40.175Z,23.87
2022-08-14T22:42:21.343Z,23.93
2022-08-14T22:44:56.460Z,23.98
2022-08-14T22:47:40.305Z,24.02
2022-08-14T22:50:32.454Z,24.01
2022-08-14T22:53:06.904Z,23.98
2022-08-14T22:55:42.720Z,23.91
2022-08-14T22:58:17.238Z,23.88
2022-08-14T23:00:50.917Z,23.86
2022-08-14T23:03:23.549Z,23.83
2022-08-14T23:05:55.804Z,23.81
2022-08-14T23:08:58.943Z,23.76
2022-08-14T23:11:20.716Z,23.73
2022-08-14T23:13:55.091Z,23.71
2022-08-14T23:16:26.801Z,23.69
2022-08-14T23:18:58.590Z,23.66
2022-08-14T23:21:30.611Z,23.64
2022-08-14T23:24:05.505Z,23.62
2022-08-14T23:26:48.180Z,23.59
2022-08-14T23:29:22.275Z,23.57
2022-08-14T23:31:53.886Z,23.54
2022-08-14T23:34:26.191Z,23.53
2022-08-14T23:37:03.908Z,23.56
2022-08-14T23:39:39.096Z,23.60
2022-08-14T23:42:11.876Z,23.65
2022-08-14T23:44:47.353Z,23.71
2022-08-14T23:47:26.324Z,23.78
2022-08-14T23:50:07.583Z,23.80
2022-08-14T23:52:55.609Z,23.82
2022-08-14T23:55:33.454Z,23.80
2022-08-14T23:58:04.876Z,23.77
